Forecasts are only available for sites displaying the forecast symbol.

Some water levels are actually in metres AHD (Australian Height Datum), click individual sites for more details.

Scroll for more >

River gauges, storages, and weirs in the Murray–Darling Basin

Type Locationsort descending River Water level Flow Volume Release Water temp Salinity Rainfall
River Gauge Albury (Union Bridge) Murray 0.92 m 15/08/2020 19:15 Not measured Not measured Not measured 10.9°C 15/08/2020 19:15 66.9 μS/cm 15/08/2020 19:15 Not measured Full data
River Gauge Balranald Murrumbidgee 1.7 m 15/08/2020 18:45 1282 ML/Day 15/08/2020 18:45 Not measured Not measured 11.4°C 15/08/2020 18:45 228.8 μS/cm 15/08/2020 18:45 Not measured Full data
River Gauge Bandiana Kiewa 2.13 m 15/08/2020 18:45 2226 ML/Day 15/08/2020 18:45 Not measured Not measured 10.3°C 15/08/2020 18:45 64.4 μS/cm 15/08/2020 18:45 Not measured Full data
River Gauge Barmah Choke Murray 1.69 m 15/08/2020 18:45 3890 ML/Day 15/08/2020 18:45 Not measured Not measured Not measured Not measured Not measured Full data
River Gauge Biggara Murray 0.9 m 15/08/2020 19:15 1882 ML/Day 15/08/2020 19:15 Not measured Not measured 6.9°C 15/08/2020 19:15 37.7 μS/cm 15/08/2020 19:15 10.2 mm 14/08/2020 9:00 Full data
River Gauge Bringenbrong Bridge Murray 1.66 m 15/08/2020 19:15 4718 ML/Day 15/08/2020 19:15 Not measured Not measured Not measured Not measured Not measured Full data
River Gauge Burtundy Darling 0.73 m 15/08/2020 19:15 143 ML/Day 15/08/2020 19:15 Not measured Not measured 13.2°C 15/08/2020 19:15 336.8 μS/cm 15/08/2020 19:15 Not measured Full data
River Gauge Colemans Mitta 0.91 m 15/08/2020 19:15 213 ML/Day 15/08/2020 19:15 Not measured Not measured 9.5°C 15/08/2020 18:45 47.6 μS/cm 15/08/2020 18:45 Not measured Full data
River Gauge Colignan Murray 2 m 15/08/2020 18:45 7203 ML/Day 15/08/2020 18:45 Not measured Not measured 12.6°C 15/08/2020 18:45 104.4 μS/cm 15/08/2020 18:45 Not measured Full data
River Gauge Corowa Murray 0.73 m 15/08/2020 19:15 2075 ML/Day 15/08/2020 19:15 Not measured Not measured 12.6°C 15/08/2020 19:15 85.7 μS/cm 15/08/2020 19:15 Not measured Full data
Storage Dartmouth Dam Mitta 453.69 m 15/08/2020 19:15 Not measured 2077 GL 15/08/2020 19:15 Not measured Not measured Not measured Not measured Full data
River Gauge Doctors Point Murray 1.81 m 15/08/2020 19:15 2783 ML/Day 15/08/2020 19:15 Not measured Not measured 11.4°C 15/08/2020 19:15 74.2 μS/cm 15/08/2020 19:15 Not measured Full data
River Gauge Echuca Wharf Murray 86.77 m 14/08/2020 7:45 Not measured Not measured Not measured Not measured Not measured Not measured Full data
River Gauge Edward Escape Wakool 0.02 m 15/08/2020 18:45 0.00 ML/Day 15/08/2020 18:45 Not measured Not measured 12.0°C 15/08/2020 18:45 69.8 μS/cm 15/08/2020 18:45 Not measured Full data
River Gauge Edward River Offtake Murray 1.88 m 15/08/2020 19:00 887 ML/Day 15/08/2020 19:00 Not measured Not measured 12.4°C 15/08/2020 18:45 54.5 μS/cm 15/08/2020 18:45 Not measured Full data
Weirs Euston Weir Downstream Murray 43.21 m 15/08/2020 18:45 7224 ML/Day 15/08/2020 18:45 Not measured Not measured 11.2°C 15/08/2020 18:45 121.4 μS/cm 15/08/2020 18:45 Not measured Full data
Weirs Euston Weir Upstream Murray 47.52 m 15/08/2020 8:45 Not measured 36 GL 15/08/2020 7:45 Not measured Not measured Not measured 145.9 mm 5/03/2020 9:00 Full data
River Gauge Flow to South Australia Murray Not measured Not measured Not measured 11730.5 ML/d14/08/2020 7:45 Not measured Not measured Not measured Full data
River Gauge Frenchman Creek Murray 27.42 m 14/08/2020 7:45 Not measured Not measured 4711.0 ML/d14/08/2020 7:45 Not measured Not measured Not measured Full data
River Gauge Gulpa Creek Offtake Murray 2.35 m 15/08/2020 18:45 231 ML/Day 15/08/2020 18:45 Not measured Not measured Not measured Not measured Not measured Full data
River Gauge Hinnomunjie Mitta 1.1 m 15/08/2020 18:45 1662 ML/Day 15/08/2020 18:45 Not measured Not measured 7.5°C 15/08/2020 18:45 32.1 μS/cm 15/08/2020 18:45 3.4 mm 15/08/2020 9:00 Full data
Storage Hume Dam Murray 183.88 m 15/08/2020 19:15 Not measured 1625 GL 15/08/2020 19:15 600.0 ML/d15/08/2020 8:00 Not measured Not measured 8.2 mm 14/08/2020 9:00 Full data
River Gauge Jingellic Murray 2.07 m 15/08/2020 18:45 7814 ML/Day 15/08/2020 18:45 Not measured Not measured 9.4°C 15/08/2020 18:45 45.3 μS/cm 15/08/2020 18:45 14.0 mm 14/08/2020 9:00 Full data
River Gauge Kerang Loddon 0.46 m 15/08/2020 18:45 376 ML/Day 15/08/2020 18:45 Not measured Not measured 12.4°C 15/08/2020 18:45 254.3 μS/cm 15/08/2020 18:45 Not measured Full data
River Gauge Lake Albert Murray 0.85 m 15/08/2020 5:45 Not measured 287 GL 15/08/2020 5:45 Not measured Not measured Not measured Not measured Full data
River Gauge Lake Alexandrina Murray 0.8 m 15/08/2020 5:45 Not measured 1642 GL 15/08/2020 5:45 Not measured Not measured 911.0 μS/cm 15/08/2020 17:45 Not measured Full data
Storage Lake Victoria Murray 26.9 m 15/08/2020 18:45 Not measured 664 GL 15/08/2020 18:45 Not measured 11.0°C 15/08/2020 18:45 111.9 μS/cm 15/08/2020 18:45 Not measured Full data
Weirs Lock 1 Downstream Murray 0.89 m 15/08/2020 18:45 Not measured Not measured 9166.5 ML/d14/08/2020 7:45 Not measured Not measured Not measured Full data
Weirs Lock 1 Upstream Murray 3.35 m 15/08/2020 18:45 Not measured Not measured Not measured 12.8°C 15/08/2020 18:45 174.7 μS/cm 15/08/2020 18:45 Not measured Full data
Weirs Lock 2 Downstream Murray 3.67 m 15/08/2020 18:45 Not measured Not measured Not measured Not measured Not measured Not measured Full data
Weirs Lock 2 Upstream Murray 6.26 m 15/08/2020 18:45 Not measured Not measured Not measured 12.6°C 15/08/2020 18:45 196.5 μS/cm 15/08/2020 18:45 Not measured Full data
Weirs Lock 3 Downstream Murray 6.62 m 15/08/2020 18:45 Not measured Not measured Not measured Not measured Not measured Not measured Full data
Weirs Lock 3 Upstream Murray 9.83 m 15/08/2020 18:45 Not measured Not measured Not measured Not measured Not measured Not measured Full data
Weirs Lock 4 Downstream Murray 10.82 m 15/08/2020 18:45 Not measured Not measured Not measured Not measured Not measured Not measured Full data
Weirs Lock 4 Upstream Murray 13.53 m 15/08/2020 18:45 Not measured Not measured Not measured Not measured Not measured Not measured Full data
Weirs Lock 5 Downstream Murray 13.79 m 15/08/2020 18:45 Not measured Not measured Not measured Not measured Not measured Not measured Full data
Weirs Lock 5 Upstream Murray 16.52 m 15/08/2020 18:45 Not measured Not measured Not measured 12.5°C 15/08/2020 18:45 146.4 μS/cm 15/08/2020 18:45 Not measured Full data
Weirs Lock 6 Downstream Murray 16.76 m 15/08/2020 18:45 Not measured Not measured Not measured Not measured Not measured Not measured Full data
Weirs Lock 6 Upstream Murray 19.42 m 15/08/2020 18:45 Not measured Not measured Not measured 12.3°C 15/08/2020 18:45 137.4 μS/cm 15/08/2020 18:45 Not measured Full data
Weirs Lock 7 Downstream Murray 20.77 m 15/08/2020 18:45 Not measured Not measured Not measured Not measured Not measured Not measured Full data
Weirs Lock 7 Upstream Murray 22.13 m 15/08/2020 18:45 Not measured Not measured Not measured 12.3°C 15/08/2020 18:45 120.5 μS/cm 15/08/2020 18:45 Not measured Full data
Weirs Lock 8 Upstream Murray 24.56 m 15/08/2020 17:45 Not measured Not measured Not measured 12.6°C 15/08/2020 17:45 122.6 μS/cm 15/08/2020 17:45 Not measured Full data
Weirs Lock 9 Downstream Murray 24.62 m 15/08/2020 18:45 Not measured Not measured Not measured Not measured Not measured Not measured Full data
Weirs Lock 9 Upstream Murray 27.46 m 15/08/2020 18:45 Not measured Not measured Not measured 12.1°C 15/08/2020 18:45 124.6 μS/cm 15/08/2020 18:45 Not measured Full data
River Gauge McCoy Bridge Goulburn 2.58 m 15/08/2020 18:45 3032 ML/Day 15/08/2020 18:45 Not measured Not measured 11.2°C 15/08/2020 18:45 103.6 μS/cm 15/08/2020 18:45 Not measured Full data
Storage Menindee Lakes Darling Not measured Not measured 459 GL 15/08/2020 7:45 Not measured Not measured Not measured Not measured Full data
Weirs Mildura Weir downstream Murray 30.97 m 15/08/2020 18:45 Not measured Not measured Not measured 11.8°C 15/08/2020 18:45 123.3 μS/cm 15/08/2020 18:45 Not measured Full data
River Gauge Morgan Downstream Murray Not measured Not measured Not measured 7180.9 ML/d15/08/2020 18:45 Not measured 193.2 μS/cm 15/08/2020 15:45 Not measured Full data
River Gauge Mulwala Canal Murray Not measured Not measured Not measured 0.00 ML/d15/08/2020 8:45 Not measured Not measured Not measured Full data
River Gauge Mundoo Barrage Murray 0.78 m 15/08/2020 7:45 Not measured Not measured Not measured Not measured Not measured Not measured Full data
River Gauge Murray Bridge Murray 0.81 m 15/08/2020 18:45 Not measured Not measured Not measured 11.8°C 15/08/2020 18:45 220.7 μS/cm 15/08/2020 18:45 Not measured Full data
River Gauge Peechelba Ovens 127.77 m 15/08/2020 18:45 2838 ML/Day 15/08/2020 18:45 Not measured Not measured 10.8°C 15/08/2020 18:45 55.9 μS/cm 15/08/2020 18:45 Not measured Full data
River Gauge Pinegrove Murray 1.69 m 15/08/2020 19:15 1121 ML/Day 15/08/2020 19:15 Not measured Not measured 10.6°C 15/08/2020 19:15 87.6 μS/cm 15/08/2020 19:15 10.4 mm 15/08/2020 9:00 Full data
River Gauge Redcliffs Murray Not measured Not measured Not measured Not measured Not measured 127.9 μS/cm 15/08/2020 7:45 Not measured Full data
River Gauge Rochester Campaspe 2 m 15/08/2020 18:45 262 ML/Day 15/08/2020 18:45 Not measured Not measured 11.2°C 15/08/2020 18:45 582.3 μS/cm 15/08/2020 18:45 1.6 mm 15/08/2020 9:00 Full data
River Gauge Rufus River Murray 21.68 m 14/08/2020 7:45 Not measured Not measured 5847.1 ML/d14/08/2020 7:45 Not measured 129.7 μS/cm 15/08/2020 18:45 Not measured Full data
Weirs Steven's Weir Downstream Edward 1.17 m 15/08/2020 18:45 894 ML/Day 15/08/2020 18:45 Not measured Not measured 11.5°C 15/08/2020 18:45 73.9 μS/cm 15/08/2020 18:45 Not measured Full data
Weirs Steven's Weir Upstream Edward 4.06 m 15/08/2020 19:00 Not measured Not measured Not measured Not measured Not measured Not measured Full data
River Gauge Stoney Crossing Murray 1.48 m 15/08/2020 18:45 598 ML/Day 15/08/2020 18:45 Not measured 602.0 ML/d15/08/2020 7:45 12.1°C 15/08/2020 18:45 171.8 μS/cm 15/08/2020 18:45 Not measured Full data
River Gauge Swan Hill Murray 1.02 m 15/08/2020 18:45 4723 ML/Day 15/08/2020 18:45 Not measured Not measured 11.7°C 15/08/2020 18:45 121.0 μS/cm 15/08/2020 18:45 Not measured Full data
River Gauge Tallandoon Mitta 1.59 m 15/08/2020 18:45 957 ML/Day 15/08/2020 18:45 Not measured Not measured 11.3°C 15/08/2020 18:45 27.9 μS/cm 15/08/2020 18:45 Not measured Full data
River Gauge Tauwitchere Barrage Murray 0.81 m 15/08/2020 18:45 Not measured Not measured Not measured Not measured Not measured Not measured Full data
River Gauge Tocumwal Murray 1.53 m 15/08/2020 18:45 5394 ML/Day 15/08/2020 18:45 Not measured Not measured 12.6°C 15/08/2020 18:45 55.4 μS/cm 15/08/2020 18:45 Not measured Full data
River Gauge Torrumbarry Headworks Murray 84.4 m 15/08/2020 18:45 Not measured Not measured 784.3 ML/d15/08/2020 18:45 Not measured Not measured Not measured Full data
Weirs Torrumbarry Weir Downstream Murray 2.23 m 15/08/2020 18:45 6380 ML/Day 15/08/2020 18:45 Not measured Not measured 11.3°C 15/08/2020 18:45 87.3 μS/cm 15/08/2020 18:45 Not measured Full data
Weirs Torrumbarry Weir Upstream Murray 86.05 m 15/08/2020 18:45 Not measured 37 GL 15/08/2020 8:45 Not measured 10.9°C 15/08/2020 8:45 87.1 μS/cm 15/08/2020 17:45 3.0 mm 14/08/2020 9:00 Full data
River Gauge Wakool Canal Wakool 0.47 m 15/08/2020 18:45 Not measured Not measured 0.00 ML/d15/08/2020 8:45 Not measured Not measured Not measured Full data
River Gauge Wakool Junction Murray 2.52 m 15/08/2020 18:45 6027 ML/Day 15/08/2020 18:45 Not measured Not measured 11.8°C 15/08/2020 18:45 115.8 μS/cm 15/08/2020 18:45 Not measured Full data
River Gauge Weir 32 Upstream Darling 1.32 m 15/08/2020 18:45 197 ML/Day 15/08/2020 18:45 Not measured Not measured 11.8°C 15/08/2020 18:45 323.6 μS/cm 15/08/2020 18:45 Not measured Full data
Weirs Wentworth Weir Murray 27.78 m 15/08/2020 18:45 Not measured Not measured 8312.3 ML/d14/08/2020 8:45 Not measured 128.0 μS/cm 14/08/2020 7:45 Not measured Full data
River Gauge Wilcania Darling 0.24 m 15/08/2020 18:45 45 ML/Day 15/08/2020 18:45 Not measured Not measured 13.4°C 15/08/2020 18:45 231.1 μS/cm 15/08/2020 18:45 Not measured Full data
River Gauge Yarrawonga Main Channel Murray 123.05 m 15/08/2020 18:45 Not measured Not measured 228.4 ML/d15/08/2020 18:45 Not measured Not measured Not measured Full data
Weirs Yarrawonga Weir Downstream Murray 1.01 m 15/08/2020 19:00 5777 ML/Day 15/08/2020 19:00 Not measured Not measured 10.9°C 15/08/2020 19:00 57.1 μS/cm 15/08/2020 19:00 Not measured Full data
Weirs Yarrawonga Weir Upstream Murray 124.73 m 15/08/2020 18:45 Not measured Not measured Not measured Not measured Not measured 11.2 mm 14/08/2020 9:00 Full data